KPOC/POC METAR and TAF weather

Enter ICAO airport designator
Station Type Date Time Source
KPOC METAR 2018/12/15 02:47 UTC NOAA

KPOC 150247Z 00000KT 10SM CLR 13/02 A3014


Station Type Date Time Source
KPOC Decoded METAR 2018/12/15 02:47 UTC NOAA

La Verne / Brackett, CA, United States (KPOC) 34-06N 117-47W
Dec 14, 2018 - 09:47 PM EST / 2018.12.15 0247 UTC
Wind: Calm:0
Visibility: 10 mile(s):0
Sky conditions: clear
Temperature: 55 F (13 C)
Dew Point: 35 F (2 C)
Relative Humidity: 47%
Pressure (altimeter): 30.14 in. Hg (1020 hPa)
ob: KPOC 150247Z 00000KT 10SM CLR 13/02 A3014
cycle: 3

Station Type Date Time Source
KPOC TAF UTC NOAA

Error!


Example: see airport list